Time;durP1;ratioP1;P1;durP2;ratioP2;P2;SDS_P1;SDS_P2;PMS_P1;PMS_P2;Temp;Humidity;BMP_temperature;BMP_pressure;BME280_temperature;BME280_humidity;BME280_pressure;Samples;Min_cycle;Max_cycle;Signal;HPM_P1;HPM_P2
2023/01/14 00:01:51;;;;;;;19.13;4.10;;;7.80;99.90;;;;;;5054772;28;20045;-74
2023/01/14 00:04:16;;;;;;;18.73;3.20;;;7.80;99.90;;;;;;5054659;28;20037;-73
2023/01/14 00:06:42;;;;;;;22.35;4.03;;;8.10;99.90;;;;;;5054707;28;20052;-73
2023/01/14 00:09:12;;;;;;;22.00;4.28;;;7.80;99.90;;;;;;5054557;28;20453;-73
2023/01/14 00:11:46;;;;;;;18.63;4.32;;;7.80;99.90;;;;;;5054299;28;20151;-73
2023/01/14 00:14:21;;;;;;;21.38;3.72;;;7.80;99.90;;;;;;5035329;28;20037;-74
2023/01/14 00:16:47;;;;;;;20.17;3.72;;;7.70;99.90;;;;;;5036385;28;20186;-74
2023/01/14 00:19:14;;;;;;;20.60;3.88;;;7.80;99.90;;;;;;5039504;28;20071;-73
2023/01/14 00:21:43;;;;;;;15.00;3.47;;;7.90;99.90;;;;;;5034112;28;20071;-73
2023/01/14 00:24:11;;;;;;;25.95;4.50;;;7.90;99.90;;;;;;5049064;28;20080;-73
2023/01/14 00:26:36;;;;;;;18.92;3.83;;;8.50;99.90;;;;;;5052935;28;20440;-73
2023/01/14 00:29:03;;;;;;;21.65;3.58;;;7.90;99.90;;;;;;5033002;28;20038;-73
2023/01/14 00:31:29;;;;;;;24.25;3.83;;;7.90;99.90;;;;;;5034567;28;20053;-73
2023/01/14 00:33:57;;;;;;;17.98;4.40;;;8.50;99.90;;;;;;5042588;28;20049;-72
2023/01/14 00:36:24;;;;;;;16.73;3.30;;;7.80;99.90;;;;;;5051463;28;20052;-73
2023/01/14 00:38:51;;;;;;;15.98;3.65;;;8.20;99.90;;;;;;5052387;28;20421;-74
2023/01/14 00:41:20;;;;;;;20.63;3.70;;;7.70;99.90;;;;;;5039416;28;20041;-73
2023/01/14 00:43:48;;;;;;;22.45;3.83;;;8.20;99.90;;;;;;5047452;28;20045;-71
2023/01/14 00:46:18;;;;;;;20.08;4.30;;;7.70;99.90;;;;;;5041001;28;20045;-74
2023/01/14 00:48:44;;;;;;;27.20;4.07;;;8.10;99.90;;;;;;5035506;28;20489;-73
2023/01/14 00:51:11;;;;;;;23.70;3.90;;;7.60;99.90;;;;;;5018663;28;20095;-73
2023/01/14 00:53:38;;;;;;;22.98;4.00;;;7.60;99.90;;;;;;5052181;28;20378;-73
2023/01/14 00:56:05;;;;;;;17.00;3.67;;;8.30;99.90;;;;;;5040247;28;20507;-73
2023/01/14 00:58:31;;;;;;;18.80;3.20;;;7.60;99.90;;;;;;5051956;28;20120;-73
2023/01/14 01:00:57;;;;;;;22.33;4.22;;;7.60;99.90;;;;;;5035362;28;20123;-74
2023/01/14 01:03:23;;;;;;;20.98;3.55;;;8.60;99.90;;;;;;5053595;28;20466;-74
2023/01/14 01:05:50;;;;;;;15.02;3.35;;;7.60;99.90;;;;;;5053453;28;20090;-73
2023/01/14 01:08:18;;;;;;;18.48;3.72;;;7.60;99.90;;;;;;5035553;28;20056;-73
2023/01/14 01:10:45;;;;;;;21.40;3.95;;;9.10;99.90;;;;;;5035919;28;20045;-74
2023/01/14 01:13:11;;;;;;;22.83;3.72;;;8.30;99.90;;;;;;5035212;28;20595;-73
2023/01/14 01:15:38;;;;;;;18.08;3.50;;;8.10;99.90;;;;;;5035809;28;20397;-73
2023/01/14 01:18:05;;;;;;;17.27;3.20;;;7.80;99.90;;;;;;5053013;28;20404;-73
2023/01/14 01:20:31;;;;;;;19.85;3.13;;;7.90;99.90;;;;;;5053196;28;20037;-73
2023/01/14 01:22:57;;;;;;;18.40;3.60;;;8.00;99.90;;;;;;5052801;28;20187;-73
2023/01/14 01:25:23;;;;;;;20.98;3.45;;;8.90;99.90;;;;;;5053427;28;20092;-73
2023/01/14 01:27:49;;;;;;;19.20;3.45;;;7.90;99.90;;;;;;5051643;28;20516;-74
2023/01/14 01:30:14;;;;;;;18.75;3.40;;;8.00;99.90;;;;;;5045731;28;20517;-73
2023/01/14 01:32:40;;;;;;;17.38;3.15;;;8.00;99.90;;;;;;5036759;28;20076;-73
2023/01/14 01:35:06;;;;;;;18.70;3.60;;;8.00;99.90;;;;;;5049431;28;20044;-73
2023/01/14 01:37:32;;;;;;;16.23;3.65;;;8.00;99.90;;;;;;5049120;28;20422;-74
2023/01/14 01:39:58;;;;;;;18.25;3.17;;;8.50;99.90;;;;;;5030390;28;20132;-73
2023/01/14 01:42:28;;;;;;;18.85;3.33;;;8.70;99.90;;;;;;5034258;28;20038;-73
2023/01/14 01:44:53;;;;;;;13.98;3.15;;;9.40;99.90;;;;;;5051174;28;20044;-73
2023/01/14 01:47:22;;;;;;;24.35;3.80;;;8.10;99.90;;;;;;5036501;28;20049;-73
2023/01/14 01:49:48;;;;;;;18.00;3.40;;;7.90;99.90;;;;;;5015699;28;20052;-74
2023/01/14 01:52:25;;;;;;;20.00;3.75;;;7.90;99.90;;;;;;5039584;28;20473;-74
2023/01/14 01:54:56;;;;;;;17.23;3.60;;;7.80;99.90;;;;;;5031226;28;20048;-73
2023/01/14 01:57:23;;;;;;;18.27;3.53;;;7.80;99.90;;;;;;5049616;28;20083;-73
2023/01/14 01:59:58;;;;;;;17.55;3.95;;;7.80;99.90;;;;;;5034766;28;20044;-73
2023/01/14 02:02:27;;;;;;;20.05;3.53;;;7.70;99.90;;;;;;5051199;28;20045;-73
2023/01/14 02:04:52;;;;;;;20.08;3.35;;;7.60;99.90;;;;;;5053853;28;20048;-73
2023/01/14 02:07:25;;;;;;;25.48;4.32;;;8.60;99.90;;;;;;5057122;28;20041;-73
2023/01/14 02:09:53;;;;;;;21.27;3.90;;;7.60;99.90;;;;;;5057099;28;20187;-73
2023/01/14 02:12:55;;;;;;;20.05;4.25;;;7.60;99.90;;;;;;5038697;28;20489;-73
2023/01/14 02:15:50;;;;;;;18.45;3.33;;;7.50;99.90;;;;;;5018903;28;20064;-73
2023/01/14 02:18:29;;;;;;;20.13;3.20;;;7.50;99.90;;;;;;5056670;28;20045;-74
2023/01/14 02:21:10;;;;;;;18.83;3.78;;;7.50;99.90;;;;;;5038785;28;20071;-73
2023/01/14 02:23:48;;;;;;;22.92;3.75;;;7.40;99.90;;;;;;5038440;28;20136;-73
2023/01/14 02:26:22;;;;;;;18.98;3.50;;;7.50;99.90;;;;;;5056577;28;20095;-74
2023/01/14 02:29:09;;;;;;;20.42;3.72;;;7.50;99.90;;;;;;5018943;28;20395;-74
2023/01/14 02:31:46;;;;;;;18.98;3.85;;;7.40;99.90;;;;;;5038217;28;20049;-73
2023/01/14 02:34:34;;;;;;;21.40;3.92;;;7.60;99.90;;;;;;5055949;28;20041;-73
2023/01/14 02:37:26;;;;;;;16.95;3.00;;;7.40;99.90;;;;;;5037041;28;20405;-73
2023/01/14 02:40:00;;;;;;;25.67;3.92;;;7.40;99.90;;;;;;5018414;28;20049;-73
2023/01/14 02:45:58;;;;;;;23.40;4.15;;;7.30;99.90;;;;;;5037476;28;20449;-73
2023/01/14 02:48:25;;;;;;;26.92;4.35;;;7.30;99.90;;;;;;4958409;28;20492;-74
2023/01/14 02:50:51;;;;;;;23.52;4.05;;;7.30;99.90;;;;;;5022616;28;20131;-73
2023/01/14 02:53:19;;;;;;;19.75;3.55;;;7.30;99.90;;;;;;5055802;28;20037;-74
2023/01/14 02:55:45;;;;;;;24.85;4.30;;;7.20;99.90;;;;;;5054074;28;20067;-73
2023/01/14 02:58:35;;;;;;;18.50;3.45;;;7.10;99.90;;;;;;5019037;28;20046;-73
2023/01/14 03:01:32;;;;;;;23.15;3.78;;;7.10;99.90;;;;;;5038012;28;20045;-73
2023/01/14 03:04:05;;;;;;;20.95;3.65;;;7.10;99.90;;;;;;5055902;28;20041;-73
2023/01/14 03:06:55;;;;;;;17.65;3.90;;;7.40;99.90;;;;;;5055893;28;20124;-73
2023/01/14 03:09:29;;;;;;;19.55;3.80;;;7.10;99.90;;;;;;5055860;28;20071;-73
2023/01/14 03:12:07;;;;;;;19.75;3.85;;;7.10;99.90;;;;;;5055604;28;20401;-73
2023/01/14 03:14:42;;;;;;;17.67;3.47;;;7.10;99.90;;;;;;5055211;28;20044;-74
2023/01/14 03:17:36;;;;;;;22.63;3.47;;;7.20;99.90;;;;;;5055498;28;20061;-73
2023/01/14 03:20:25;;;;;;;20.02;4.30;;;7.10;99.90;;;;;;5030289;28;20417;-74
2023/01/14 03:22:52;;;;;;;22.75;4.07;;;7.00;99.90;;;;;;5037344;28;20045;-74
2023/01/14 03:25:21;;;;;;;18.38;3.67;;;8.60;99.90;;;;;;5021208;28;20084;-73
2023/01/14 03:27:49;;;;;;;22.40;4.20;;;7.10;99.90;;;;;;5055240;28;20075;-73
2023/01/14 03:30:21;;;;;;;26.90;4.10;;;7.10;99.90;;;;;;5019768;28;20057;-73
2023/01/14 03:32:53;;;;;;;26.75;4.50;;;7.00;99.90;;;;;;5048259;28;20134;-73
2023/01/14 03:35:24;;;;;;;16.30;3.33;;;7.00;99.90;;;;;;5037108;28;20049;-73
2023/01/14 03:38:02;;;;;;;16.80;3.70;;;6.90;99.90;;;;;;5053269;28;20130;-73
2023/01/14 03:40:30;;;;;;;24.23;4.47;;;6.90;99.90;;;;;;5034110;28;20052;-73
2023/01/14 03:43:03;;;;;;;18.98;3.42;;;6.90;99.90;;;;;;5020310;28;20124;-73
2023/01/14 03:45:35;;;;;;;21.77;3.83;;;6.90;99.90;;;;;;5053379;28;20076;-73
2023/01/14 03:48:01;;;;;;;22.45;4.18;;;6.80;99.90;;;;;;5029706;28;20436;-73
2023/01/14 03:50:34;;;;;;;15.43;3.33;;;7.00;99.90;;;;;;5036810;28;20041;-73
2023/01/14 03:53:08;;;;;;;17.38;3.55;;;6.80;99.90;;;;;;5040159;28;20041;-73
2023/01/14 03:56:04;;;;;;;25.27;5.00;;;6.80;99.90;;;;;;5017030;28;20136;-73
2023/01/14 03:59:04;;;;;;;19.08;3.80;;;6.70;99.90;;;;;;5039567;28;20033;-73
2023/01/14 04:01:42;;;;;;;23.40;4.05;;;6.70;99.90;;;;;;5036135;28;20053;-73
2023/01/14 04:04:09;;;;;;;17.42;3.47;;;6.70;99.90;;;;;;5049923;28;20044;-73
2023/01/14 04:06:35;;;;;;;21.08;3.50;;;7.00;99.90;;;;;;5035042;28;20053;-73
2023/01/14 04:09:00;;;;;;;20.65;4.25;;;8.20;99.90;;;;;;5033564;28;20037;-73
2023/01/14 04:11:26;;;;;;;17.05;3.95;;;6.70;99.90;;;;;;5033059;28;20494;-73
2023/01/14 04:16:36;;;;;;;21.02;4.10;;;6.80;99.90;;;;;;5036473;28;20048;-73
2023/01/14 04:19:01;;;;;;;26.60;4.47;;;6.70;99.90;;;;;;5043892;28;20460;-73
2023/01/14 04:21:27;;;;;;;20.92;3.90;;;7.50;99.90;;;;;;5035305;28;20056;-73
2023/01/14 04:23:55;;;;;;;21.60;4.28;;;6.70;99.90;;;;;;5035975;28;20183;-73
2023/01/14 04:26:21;;;;;;;19.77;3.97;;;6.70;99.90;;;;;;5051483;28;20063;-73
2023/01/14 04:28:46;;;;;;;21.83;3.83;;;6.70;99.90;;;;;;5036645;28;20038;-73
2023/01/14 04:31:12;;;;;;;20.38;3.42;;;6.70;99.90;;;;;;5036134;28;20045;-73
2023/01/14 04:33:37;;;;;;;19.42;3.40;;;6.70;99.90;;;;;;5036802;28;20394;-73
2023/01/14 04:36:03;;;;;;;22.23;3.72;;;6.60;99.90;;;;;;5032554;28;20120;-73
2023/01/14 04:38:29;;;;;;;16.38;3.50;;;6.60;99.90;;;;;;5041559;28;20037;-73
2023/01/14 04:40:55;;;;;;;14.50;3.75;;;7.00;99.90;;;;;;5052367;28;20041;-73
2023/01/14 04:43:21;;;;;;;19.00;3.78;;;6.60;99.90;;;;;;5032712;28;20116;-74
2023/01/14 04:45:51;;;;;;;17.98;3.65;;;6.50;99.90;;;;;;5042589;28;20379;-73
2023/01/14 04:48:18;;;;;;;31.38;4.10;;;6.50;99.90;;;;;;5043222;28;20037;-73
2023/01/14 04:50:46;;;;;;;19.00;3.80;;;7.30;99.90;;;;;;5051799;28;20037;-75
2023/01/14 04:53:15;;;;;;;22.33;3.75;;;6.50;99.90;;;;;;5053794;28;20037;-73
2023/01/14 04:55:43;;;;;;;22.40;3.75;;;6.40;99.90;;;;;;5035637;28;20037;-73
2023/01/14 04:58:10;;;;;;;16.33;3.15;;;6.50;99.90;;;;;;5042181;28;20075;-73
2023/01/14 05:00:37;;;;;;;19.05;3.53;;;6.50;99.90;;;;;;5047614;28;20044;-73
2023/01/14 05:03:08;;;;;;;14.85;3.13;;;6.50;99.90;;;;;;5034999;28;20124;-72
2023/01/14 05:05:35;;;;;;;23.17;3.78;;;7.70;99.90;;;;;;5019316;28;20513;-73
2023/01/14 05:08:02;;;;;;;13.10;2.95;;;6.50;99.90;;;;;;5053641;28;20130;-73
2023/01/14 05:10:27;;;;;;;17.50;3.58;;;6.40;99.90;;;;;;5035938;28;20060;-74
2023/01/14 05:12:56;;;;;;;16.35;3.28;;;6.40;99.90;;;;;;5053369;28;20052;-74
2023/01/14 05:15:41;;;;;;;20.23;3.78;;;6.80;99.90;;;;;;5035374;28;20067;-74
2023/01/14 05:18:09;;;;;;;18.70;3.78;;;6.90;99.90;;;;;;5024423;28;20577;-73
2023/01/14 05:20:34;;;;;;;21.27;3.38;;;6.40;99.90;;;;;;4997598;28;20053;-73
2023/01/14 05:23:05;;;;;;;18.73;3.70;;;6.40;99.90;;;;;;5033073;28;20049;-73
2023/01/14 05:25:32;;;;;;;20.15;3.50;;;6.40;99.90;;;;;;5015633;28;20100;-74
2023/01/14 05:27:59;;;;;;;16.55;3.85;;;6.40;99.90;;;;;;5033183;28;20128;-74
2023/01/14 05:30:25;;;;;;;16.90;3.70;;;6.30;99.90;;;;;;5033298;28;20041;-76
2023/01/14 05:32:51;;;;;;;15.43;3.13;;;6.30;99.90;;;;;;5034057;28;20045;-77
2023/01/14 05:35:17;;;;;;;22.50;3.45;;;6.40;99.90;;;;;;5050488;28;20120;-76
2023/01/14 05:37:43;;;;;;;21.20;3.30;;;6.40;99.90;;;;;;5015896;28;20049;-77
2023/01/14 05:40:10;;;;;;;23.67;3.42;;;6.30;99.90;;;;;;5031473;28;20037;-76
2023/01/14 05:45:38;;;;;;;16.85;3.38;;;6.40;99.90;;;;;;5034896;28;20049;-76
2023/01/14 05:48:04;;;;;;;18.50;3.80;;;6.90;99.90;;;;;;5052933;28;20037;-75
2023/01/14 05:50:30;;;;;;;19.10;3.83;;;5.20;99.90;;;;;;5035074;28;20047;-75
2023/01/14 05:52:56;;;;;;;21.77;4.03;;;7.60;99.90;;;;;;5051577;28;20041;-75
2023/01/14 05:55:23;;;;;;;15.35;3.50;;;6.30;99.90;;;;;;5035186;28;20401;-76
2023/01/14 05:57:48;;;;;;;24.23;3.28;;;6.30;99.90;;;;;;5052704;28;20069;-75
2023/01/14 06:08:29;;;;;;;23.38;3.63;;;6.30;99.90;;;;;;5035699;28;20045;-75
2023/01/14 06:10:54;;;;;;;18.95;3.70;;;6.40;99.90;;;;;;5034360;28;20134;-76
2023/01/14 06:13:23;;;;;;;17.52;3.65;;;7.10;99.90;;;;;;5041170;28;20121;-75
2023/01/14 06:15:55;;;;;;;22.83;3.85;;;7.50;99.90;;;;;;5047550;28;20049;-75
2023/01/14 06:18:22;;;;;;;19.20;3.90;;;7.10;99.90;;;;;;5034560;28;20053;-75
2023/01/14 06:20:50;;;;;;;25.38;4.55;;;6.30;99.90;;;;;;5052652;28;20123;-75
2023/01/14 06:23:16;;;;;;;17.13;4.75;;;6.30;99.90;;;;;;5031304;28;20056;-76
2023/01/14 06:25:43;;;;;;;27.75;4.80;;;6.50;99.90;;;;;;5004572;28;20402;-76
2023/01/14 06:28:09;;;;;;;20.13;4.20;;;6.40;99.90;;;;;;5032865;28;20049;-76
2023/01/14 06:30:34;;;;;;;15.63;3.63;;;6.30;99.90;;;;;;5032719;28;20145;-76
2023/01/14 06:33:00;;;;;;;22.42;4.22;;;6.40;99.90;;;;;;5032488;28;20037;-76
2023/01/14 06:35:26;;;;;;;21.73;4.28;;;7.10;99.90;;;;;;5032699;28;20052;-76
2023/01/14 06:37:52;;;;;;;18.08;3.97;;;7.60;99.90;;;;;;5031920;28;20037;-76
2023/01/14 06:40:19;;;;;;;21.40;4.13;;;7.20;99.90;;;;;;5014846;28;20041;-77
2023/01/14 06:42:45;;;;;;;27.77;4.80;;;6.40;99.90;;;;;;5014558;28;20053;-77
2023/01/14 06:45:11;;;;;;;26.23;4.72;;;7.00;99.90;;;;;;4998457;28;20132;-77
2023/01/14 06:47:38;;;;;;;29.30;5.22;;;7.30;99.90;;;;;;4998575;28;20120;-77
2023/01/14 06:50:05;;;;;;;22.67;5.07;;;6.30;99.90;;;;;;5016302;28;20049;-77
2023/01/14 06:52:30;;;;;;;24.60;4.93;;;6.20;99.90;;;;;;5035725;28;20077;-77
2023/01/14 06:54:58;;;;;;;25.20;5.55;;;7.70;99.90;;;;;;5035896;28;20104;-77
2023/01/14 06:57:25;;;;;;;25.83;4.97;;;6.40;99.90;;;;;;5001612;28;20041;-77
2023/01/14 06:59:52;;;;;;;26.25;5.95;;;6.30;99.90;;;;;;5002041;28;20473;-77
2023/01/14 07:02:18;;;;;;;23.58;5.32;;;6.30;99.90;;;;;;5034746;28;20405;-77
2023/01/14 07:04:44;;;;;;;25.48;5.72;;;6.30;99.90;;;;;;5035756;28;20037;-77
2023/01/14 07:07:10;;;;;;;34.60;6.40;;;6.30;99.90;;;;;;5034282;28;20073;-77
2023/01/14 07:09:36;;;;;;;20.98;5.88;;;7.50;99.90;;;;;;5032515;28;20037;-77
2023/01/14 07:12:02;;;;;;;27.10;6.68;;;6.50;99.90;;;;;;5033853;28;20034;-75
2023/01/14 07:14:28;;;;;;;28.75;6.47;;;6.30;99.90;;;;;;5034647;28;20045;-77
2023/01/14 07:16:54;;;;;;;27.85;6.22;;;6.30;99.90;;;;;;5035675;28;20048;-77
2023/01/14 07:19:19;;;;;;;24.17;5.55;;;6.30;99.90;;;;;;5033159;28;20045;-77
2023/01/14 07:21:45;;;;;;;24.85;6.00;;;6.30;99.90;;;;;;5035444;28;20044;-75
2023/01/14 07:24:11;;;;;;;26.25;5.88;;;6.40;99.90;;;;;;5032340;28;20045;-75
2023/01/14 07:26:37;;;;;;;25.75;5.68;;;6.30;99.90;;;;;;5035560;28;20049;-76
2023/01/14 07:29:02;;;;;;;23.35;5.53;;;6.40;99.90;;;;;;5035740;28;20132;-77
2023/01/14 07:31:28;;;;;;;28.33;6.18;;;6.40;99.90;;;;;;5034108;28;20049;-77
2023/01/14 07:33:54;;;;;;;30.30;5.78;;;6.40;99.90;;;;;;5033990;28;20049;-77
2023/01/14 07:36:19;;;;;;;29.38;7.40;;;6.50;99.90;;;;;;5034032;28;20488;-77
2023/01/14 07:38:45;;;;;;;30.60;6.95;;;6.50;99.90;;;;;;5015831;28;20037;-77
2023/01/14 07:41:20;;;;;;;23.83;5.22;;;6.70;99.90;;;;;;5035012;28;20402;-77
2023/01/14 07:43:45;;;;;;;27.33;5.75;;;6.40;99.90;;;;;;5035307;28;20121;-77
2023/01/14 07:46:11;;;;;;;24.58;5.18;;;6.50;99.90;;;;;;5032175;28;20076;-77
2023/01/14 07:48:37;;;;;;;37.85;6.18;;;6.50;99.90;;;;;;5017540;28;20037;-77
2023/01/14 07:51:04;;;;;;;24.13;5.65;;;6.40;99.90;;;;;;5015497;28;20057;-77
2023/01/14 07:53:30;;;;;;;29.15;6.20;;;6.50;99.90;;;;;;5034515;28;20465;-78
2023/01/14 07:55:55;;;;;;;25.02;5.22;;;7.00;99.90;;;;;;5017402;28;20085;-76
2023/01/14 07:58:23;;;;;;;26.50;5.53;;;6.70;99.90;;;;;;5017395;28;20077;-76
2023/01/14 08:00:48;;;;;;;33.50;6.43;;;6.80;99.90;;;;;;5034481;28;20037;-76
2023/01/14 08:03:14;;;;;;;31.10;6.22;;;7.00;99.90;;;;;;5032972;28;20041;-76
2023/01/14 08:05:40;;;;;;;30.38;5.93;;;6.60;99.90;;;;;;5033522;28;20081;-76
2023/01/14 08:08:06;;;;;;;28.45;5.47;;;8.10;99.90;;;;;;5034579;28;20091;-76
2023/01/14 08:10:31;;;;;;;23.85;5.57;;;7.30;99.90;;;;;;5033833;28;20049;-76
2023/01/14 08:12:57;;;;;;;27.75;6.07;;;6.70;99.90;;;;;;5033129;28;20482;-76
2023/01/14 08:15:23;;;;;;;27.83;6.18;;;6.80;99.90;;;;;;5034636;28;20441;-76
2023/01/14 08:17:49;;;;;;;25.63;5.22;;;6.70;99.90;;;;;;5033599;28;20469;-76
2023/01/14 08:20:15;;;;;;;30.17;6.00;;;7.90;99.90;;;;;;5016312;28;20132;-76
2023/01/14 08:22:40;;;;;;;33.88;5.53;;;6.80;99.90;;;;;;5033702;28;20037;-76
2023/01/14 08:25:06;;;;;;;26.17;5.70;;;6.90;99.90;;;;;;5029690;28;20140;-76
2023/01/14 08:27:32;;;;;;;29.95;5.78;;;6.80;99.90;;;;;;5016712;28;20056;-76
2023/01/14 08:29:58;;;;;;;21.27;4.60;;;8.20;99.90;;;;;;5028968;28;20052;-76
2023/01/14 08:32:24;;;;;;;30.13;5.88;;;6.80;99.90;;;;;;5054051;28;20493;-76
2023/01/14 08:34:50;;;;;;;28.55;6.63;;;6.70;99.90;;;;;;5054084;28;20041;-76
2023/01/14 08:37:15;;;;;;;22.58;5.85;;;6.70;99.90;;;;;;5019777;28;20139;-76
2023/01/14 08:39:41;;;;;;;26.80;5.40;;;8.10;99.90;;;;;;5036014;28;20489;-76
2023/01/14 08:42:07;;;;;;;25.58;5.57;;;6.60;99.90;;;;;;5036424;28;20068;-76
2023/01/14 08:44:33;;;;;;;29.83;5.32;;;7.90;99.90;;;;;;5019592;28;20144;-76
2023/01/14 08:46:58;;;;;;;24.90;5.43;;;7.20;99.90;;;;;;5053867;28;20041;-76
2023/01/14 08:49:24;;;;;;;32.78;6.20;;;6.50;99.90;;;;;;5053731;28;20508;-76
2023/01/14 08:51:50;;;;;;;24.73;4.88;;;6.50;99.90;;;;;;5019209;28;20043;-76
2023/01/14 08:54:16;;;;;;;30.30;5.57;;;7.40;99.90;;;;;;5051872;28;20076;-76
2023/01/14 08:56:41;;;;;;;29.40;5.28;;;6.40;99.90;;;;;;5053546;28;20037;-76
2023/01/14 08:59:07;;;;;;;24.58;4.80;;;7.60;99.90;;;;;;5052062;28;20099;-76
2023/01/14 09:01:33;;;;;;;22.15;5.25;;;7.60;99.90;;;;;;5035630;28;20067;-76
2023/01/14 09:04:00;;;;;;;29.67;5.38;;;6.20;99.90;;;;;;5034459;28;20088;-76
2023/01/14 09:06:26;;;;;;;26.70;5.13;;;6.40;99.90;;;;;;5032729;28;20128;-76
2023/01/14 09:17:15;;;;;;;;;;;7.40;99.90;;;;;;5033815;28;20485;-76
2023/01/14 09:19:51;;;;;;;25.70;5.65;;;6.30;99.90;;;;;;4999002;28;19921;-76
2023/01/14 09:22:19;;;;;;;;;;;6.10;99.90;;;;;;5016202;28;20461;-76
2023/01/14 09:24:45;;;;;;;26.92;5.40;;;6.00;99.90;;;;;;5039652;28;20305;-76
2023/01/14 09:27:11;;;;;;;21.60;4.78;;;7.50;99.90;;;;;;5014202;28;20080;-76
2023/01/14 09:29:36;;;;;;;28.20;5.50;;;6.50;99.90;;;;;;5052201;28;20084;-76
2023/01/14 09:32:03;;;;;;;26.52;5.35;;;6.00;99.90;;;;;;5034902;28;20087;-76
2023/01/14 09:34:28;;;;;;;24.58;5.18;;;6.10;99.90;;;;;;5035188;28;20385;-76
2023/01/14 09:36:55;;;;;;;31.63;5.38;;;6.20;99.90;;;;;;5051948;28;20045;-76
2023/01/14 09:39:21;;;;;;;28.70;4.82;;;6.10;99.90;;;;;;5047167;28;20088;-76
2023/01/14 09:41:54;;;;;;;33.45;5.57;;;6.00;99.90;;;;;;5042595;28;20053;-76
2023/01/14 09:44:24;;;;;;;25.30;4.47;;;6.10;99.90;;;;;;5052658;28;20388;-76
2023/01/14 09:46:51;;;;;;;23.33;4.50;;;6.00;99.90;;;;;;5034973;28;20397;-75
2023/01/14 09:49:21;;;;;;;19.27;4.82;;;6.10;99.90;;;;;;5018616;28;20555;-75
2023/01/14 09:51:50;;;;;;;29.20;4.88;;;6.10;99.90;;;;;;5035152;28;20393;-76
2023/01/14 09:54:38;;;;;;;26.80;4.75;;;6.00;99.90;;;;;;5017447;28;20057;-76
2023/01/14 09:57:19;;;;;;;31.63;5.28;;;6.00;99.90;;;;;;5032662;28;20108;-74
2023/01/14 10:00:04;;;;;;;22.80;4.78;;;7.10;99.90;;;;;;5014414;28;20037;-75
2023/01/14 10:02:32;;;;;;;23.02;4.80;;;6.10;99.90;;;;;;5027034;28;20041;-75
2023/01/14 10:05:18;;;;;;;23.23;4.53;;;6.10;99.90;;;;;;5019256;28;20433;-74
2023/01/14 10:07:44;;;;;;;21.75;5.18;;;6.00;99.90;;;;;;5034105;28;20041;-74
2023/01/14 10:10:24;;;;;;;20.90;5.25;;;6.70;99.90;;;;;;5052791;28;20045;-74
2023/01/14 10:12:52;;;;;;;13.68;4.00;;;6.10;99.90;;;;;;5052584;28;20052;-74
2023/01/14 10:15:17;;;;;;;17.58;4.63;;;6.10;99.90;;;;;;5034027;28;20048;-73
2023/01/14 10:17:49;;;;;;;19.63;4.45;;;6.20;99.90;;;;;;5033506;28;20111;-75
2023/01/14 10:20:43;;;;;;;17.08;4.40;;;7.00;99.90;;;;;;5032052;28;20052;-77
2023/01/14 10:23:16;;;;;;;14.15;4.10;;;6.20;99.90;;;;;;5030091;28;20049;-77
2023/01/14 10:25:48;;;;;;;13.60;4.10;;;6.20;99.90;;;;;;5016209;28;20045;-77
2023/01/14 10:28:16;;;;;;;17.73;4.00;;;7.20;99.90;;;;;;5034041;28;20041;-77
2023/01/14 10:30:44;;;;;;;12.73;3.35;;;7.80;99.90;;;;;;5001087;28;20095;-76
2023/01/14 10:33:15;;;;;;;8.70;2.42;;;6.30;99.90;;;;;;5018618;28;20063;-77
2023/01/14 10:35:45;;;;;;;9.70;2.95;;;6.80;99.90;;;;;;5002743;28;20135;-76
2023/01/14 10:38:18;;;;;;;8.38;2.63;;;7.90;99.90;;;;;;5036340;28;20060;-76
2023/01/14 10:40:46;;;;;;;10.25;2.85;;;7.60;99.90;;;;;;5036214;28;20388;-76
2023/01/14 10:43:30;;;;;;;7.15;2.70;;;6.30;99.90;;;;;;5036048;28;20045;-76
2023/01/14 10:45:56;;;;;;;11.48;2.60;;;6.40;99.90;;;;;;5018106;28;20049;-77
2023/01/14 10:48:24;;;;;;;7.35;2.08;;;6.40;99.90;;;;;;5018584;28;20088;-76
2023/01/14 10:50:51;;;;;;;7.47;2.30;;;7.20;99.90;;;;;;5035315;28;20461;-77
2023/01/14 10:53:24;;;;;;;5.57;2.55;;;8.10;99.90;;;;;;5035900;28;20125;-77
2023/01/14 10:55:54;;;;;;;8.73;2.50;;;6.60;99.90;;;;;;5036091;28;20076;-76
2023/01/14 10:58:33;;;;;;;8.93;2.60;;;7.80;99.90;;;;;;5035743;28;20144;-76
2023/01/14 11:01:05;;;;;;;8.50;2.70;;;8.20;99.90;;;;;;5019192;28;20049;-76
2023/01/14 11:03:46;;;;;;;6.78;2.78;;;6.60;99.90;;;;;;5017318;28;20048;-76
2023/01/14 11:06:14;;;;;;;7.80;2.75;;;7.60;99.90;;;;;;5017119;28;20050;-77
2023/01/14 11:08:48;;;;;;;7.03;2.55;;;6.90;99.90;;;;;;5035084;28;20061;-77
2023/01/14 11:11:19;;;;;;;7.40;2.70;;;6.70;99.90;;;;;;5034950;28;20569;-75
2023/01/14 11:13:50;;;;;;;9.88;3.25;;;6.70;99.90;;;;;;5017918;28;20428;-74
2023/01/14 11:16:25;;;;;;;8.00;2.63;;;6.70;99.90;;;;;;5034522;28;20047;-75
2023/01/14 11:19:01;;;;;;;8.32;2.80;;;6.70;99.90;;;;;;5031383;28;20121;-75
2023/01/14 11:21:27;;;;;;;;;;;6.70;99.90;;;;;;5035296;28;20064;-75
2023/01/14 11:24:02;;;;;;;6.53;2.35;;;6.70;99.90;;;;;;5017048;28;19920;-74
2023/01/14 11:26:31;;;;;;;8.27;2.50;;;6.80;99.90;;;;;;5034753;28;20054;-74
2023/01/14 11:29:20;;;;;;;6.88;2.22;;;7.10;99.90;;;;;;5017408;28;20049;-74
2023/01/14 11:31:47;;;;;;;7.15;2.67;;;6.70;99.90;;;;;;5030033;28;20053;-74
2023/01/14 11:34:33;;;;;;;10.40;2.88;;;6.80;99.90;;;;;;4997284;28;20041;-72
2023/01/14 11:37:09;;;;;;;4.18;2.22;;;6.80;99.90;;;;;;5016453;28;20072;-77
2023/01/14 11:39:35;;;;;;;7.97;2.60;;;7.10;99.90;;;;;;5000037;28;20060;-76
2023/01/14 11:42:20;;;;;;;9.15;3.30;;;8.20;99.90;;;;;;5034501;28;20045;-76
2023/01/14 11:44:56;;;;;;;9.13;3.10;;;6.80;99.90;;;;;;5017314;28;20085;-76
2023/01/14 11:47:22;;;;;;;9.90;2.80;;;6.80;99.90;;;;;;5034758;28;20517;-76
2023/01/14 11:49:49;;;;;;;8.73;3.30;;;6.80;99.90;;;;;;5000930;28;20041;-76
2023/01/14 11:52:21;;;;;;;8.68;2.85;;;7.30;99.90;;;;;;5001059;28;20041;-76
2023/01/14 11:54:47;;;;;;;6.35;2.90;;;6.80;99.90;;;;;;5034801;28;20053;-76
2023/01/14 11:57:17;;;;;;;6.40;2.42;;;6.80;99.90;;;;;;5017055;28;20043;-76
2023/01/14 11:59:45;;;;;;;6.60;2.80;;;7.40;99.90;;;;;;5035008;28;20124;-76
2023/01/14 12:02:19;;;;;;;5.03;2.33;;;6.90;99.90;;;;;;5034729;28;20387;-76
2023/01/14 12:05:03;;;;;;;7.82;2.80;;;6.90;99.90;;;;;;5034261;28;20052;-76
2023/01/14 12:07:36;;;;;;;5.72;2.83;;;6.90;99.90;;;;;;5015525;28;20056;-77
2023/01/14 12:10:21;;;;;;;6.78;2.55;;;6.90;99.90;;;;;;5034621;28;20052;-76
2023/01/14 12:18:54;;;;;;;7.93;3.13;;;7.70;99.90;;;;;;5016465;28;20092;-76
2023/01/14 12:21:26;;;;;;;8.23;2.80;;;6.90;99.90;;;;;;5016662;28;20413;-75
2023/01/14 12:24:24;;;;;;;6.47;2.47;;;7.00;99.90;;;;;;5028386;28;20053;-75
2023/01/14 12:26:53;;;;;;;10.05;3.20;;;7.00;99.90;;;;;;5025329;28;20057;-75
2023/01/14 12:29:28;;;;;;;9.43;2.72;;;7.00;99.90;;;;;;5036239;28;20044;-75
2023/01/14 12:32:27;;;;;;;10.15;2.80;;;7.30;99.90;;;;;;5036167;28;20049;-76
2023/01/14 12:34:59;;;;;;;7.18;2.83;;;7.00;99.90;;;;;;5031699;28;20087;-76
2023/01/14 12:37:32;;;;;;;7.05;2.40;;;7.30;99.90;;;;;;5036075;28;20049;-76
2023/01/14 12:46:11;;;;;;;5.45;2.40;;;7.60;99.90;;;;;;5035002;28;20048;-76
2023/01/14 12:48:37;;;;;;;6.93;2.30;;;8.10;99.90;;;;;;5033134;28;20045;-76
2023/01/14 12:51:17;;;;;;;4.22;2.15;;;7.30;99.90;;;;;;5031925;28;20133;-76
2023/01/14 12:53:49;;;;;;;7.80;2.45;;;7.40;99.90;;;;;;5026592;28;20049;-76
2023/01/14 12:56:34;;;;;;;6.13;2.63;;;7.40;99.90;;;;;;5034188;28;20502;-75
2023/01/14 12:59:05;;;;;;;6.00;2.30;;;8.30;99.90;;;;;;5032529;28;20041;-76
2023/01/14 13:01:47;;;;;;;5.85;1.95;;;7.40;99.90;;;;;;5034203;28;20137;-75
2023/01/14 13:04:20;;;;;;;6.70;2.35;;;8.20;99.90;;;;;;5053009;28;20048;-75
2023/01/14 13:06:52;;;;;;;5.88;2.40;;;8.30;99.90;;;;;;5018389;28;20045;-76
2023/01/14 13:09:26;;;;;;;7.63;2.63;;;7.50;99.90;;;;;;5035897;28;20382;-76
2023/01/14 13:11:54;;;;;;;4.75;2.25;;;7.60;99.90;;;;;;5016368;28;20045;-72
2023/01/14 13:14:25;;;;;;;5.55;2.70;;;7.80;99.90;;;;;;5034820;28;20045;-71
2023/01/14 13:16:58;;;;;;;4.68;1.95;;;;;;;;;;5046912;28;20060;-70
2023/01/14 13:19:24;;;;;;;7.43;2.45;;;;;;;;;;5049464;28;20068;-71
2023/01/14 13:22:02;;;;;;;6.90;2.20;;;;;;;;;;5031632;28;20615;-71
2023/01/14 13:24:38;;;;;;;5.40;2.45;;;;;;;;;;5013853;28;20060;-70
2023/01/14 13:27:33;;;;;;;5.45;2.20;;;;;;;;;;5029669;28;20520;-70
2023/01/14 13:30:18;;;;;;;4.15;2.05;;;;;;;;;;4999572;28;20063;-71
2023/01/14 13:32:53;;;;;;;5.47;1.92;;;;;;;;;;5046483;28;20118;-71
2023/01/14 13:35:20;;;;;;;4.05;2.00;;;;;;;;;;5031387;28;20439;-71
2023/01/14 13:37:47;;;;;;;6.22;2.08;;;;;;;;;;5031226;28;20065;-70
2023/01/14 13:40:16;;;;;;;3.17;1.80;;;;;;;;;;5049374;28;20103;-70
2023/01/14 13:42:42;;;;;;;4.47;2.13;;;;;;;;;;5048970;28;20149;-71
2023/01/14 13:45:22;;;;;;;4.45;2.20;;;;;;;;;;5028764;28;20037;-71
2023/01/14 13:47:49;;;;;;;5.18;1.73;;;;;;;;;;5029049;28;20158;-70